sensor_id;sensor_type;location;lat;lon;timestamp;pressure;altitude;pressure_sealevel;temperature;humidity
75538;BME280;64121;48.666;8.114;2023-02-26T00:00:24;99695.94;;;0.02;62.63
75538;BME280;64121;48.666;8.114;2023-02-26T00:02:51;99694.00;;;0.02;63.68
75538;BME280;64121;48.666;8.114;2023-02-26T00:05:17;99695.13;;;0.01;62.97
75538;BME280;64121;48.666;8.114;2023-02-26T00:07:42;99698.75;;;-0.09;64.09
75538;BME280;64121;48.666;8.114;2023-02-26T00:10:11;99703.41;;;-0.09;63.20
75538;BME280;64121;48.666;8.114;2023-02-26T00:12:37;99703.09;;;-0.08;64.41
75538;BME280;64121;48.666;8.114;2023-02-26T00:15:03;99700.66;;;-0.09;63.58
75538;BME280;64121;48.666;8.114;2023-02-26T00:17:36;99696.06;;;-0.14;64.09
75538;BME280;64121;48.666;8.114;2023-02-26T00:20:06;99699.66;;;-0.18;64.56
75538;BME280;64121;48.666;8.114;2023-02-26T00:22:32;99696.34;;;-0.20;64.93
75538;BME280;64121;48.666;8.114;2023-02-26T00:24:58;99692.81;;;-0.21;64.53
75538;BME280;64121;48.666;8.114;2023-02-26T00:27:23;99705.94;;;-0.23;64.41
75538;BME280;64121;48.666;8.114;2023-02-26T00:29:49;99697.47;;;-0.21;64.92
75538;BME280;64121;48.666;8.114;2023-02-26T00:32:15;99695.88;;;-0.27;65.05
75538;BME280;64121;48.666;8.114;2023-02-26T00:34:41;99707.13;;;-0.34;65.14
75538;BME280;64121;48.666;8.114;2023-02-26T00:37:26;99703.31;;;-0.33;64.96
75538;BME280;64121;48.666;8.114;2023-02-26T00:39:59;99690.41;;;-0.27;65.18
75538;BME280;64121;48.666;8.114;2023-02-26T00:42:27;99708.72;;;-0.28;65.65
75538;BME280;64121;48.666;8.114;2023-02-26T00:44:53;99703.84;;;-0.31;65.07
75538;BME280;64121;48.666;8.114;2023-02-26T00:47:25;99704.13;;;-0.33;65.87
75538;BME280;64121;48.666;8.114;2023-02-26T00:50:04;99706.88;;;-0.38;65.98
75538;BME280;64121;48.666;8.114;2023-02-26T00:52:39;99707.94;;;-0.34;65.12
75538;BME280;64121;48.666;8.114;2023-02-26T00:55:06;99710.16;;;-0.36;65.37
75538;BME280;64121;48.666;8.114;2023-02-26T00:57:32;99714.53;;;-0.40;66.15
75538;BME280;64121;48.666;8.114;2023-02-26T00:59:57;99709.09;;;-0.45;65.91
75538;BME280;64121;48.666;8.114;2023-02-26T01:02:23;99708.03;;;-0.49;66.38
75538;BME280;64121;48.666;8.114;2023-02-26T01:04:49;99708.91;;;-0.53;66.48
75538;BME280;64121;48.666;8.114;2023-02-26T01:07:16;99698.25;;;-0.55;67.14
75538;BME280;64121;48.666;8.114;2023-02-26T01:09:46;99707.00;;;-0.58;67.41
75538;BME280;64121;48.666;8.114;2023-02-26T01:12:12;99713.06;;;-0.66;67.35
75538;BME280;64121;48.666;8.114;2023-02-26T01:14:38;99706.00;;;-0.72;67.84
75538;BME280;64121;48.666;8.114;2023-02-26T01:17:07;99716.06;;;-0.68;67.19
75538;BME280;64121;48.666;8.114;2023-02-26T01:19:40;99706.50;;;-0.65;67.04
75538;BME280;64121;48.666;8.114;2023-02-26T01:22:13;99713.28;;;-0.57;67.03
75538;BME280;64121;48.666;8.114;2023-02-26T01:24:40;99709.44;;;-0.56;67.04
75538;BME280;64121;48.666;8.114;2023-02-26T01:27:07;99709.16;;;-0.50;66.79
75538;BME280;64121;48.666;8.114;2023-02-26T01:29:33;99698.19;;;-0.45;68.09
75538;BME280;64121;48.666;8.114;2023-02-26T01:32:04;99699.84;;;-0.49;67.57
75538;BME280;64121;48.666;8.114;2023-02-26T01:34:36;99712.16;;;-0.51;68.24
75538;BME280;64121;48.666;8.114;2023-02-26T01:37:10;99699.06;;;-0.54;68.77
75538;BME280;64121;48.666;8.114;2023-02-26T01:39:39;99702.38;;;-0.63;68.49
75538;BME280;64121;48.666;8.114;2023-02-26T01:42:14;99694.47;;;-0.64;68.46
75538;BME280;64121;48.666;8.114;2023-02-26T01:44:41;99689.84;;;-0.69;68.42
75538;BME280;64121;48.666;8.114;2023-02-26T01:47:16;99697.00;;;-0.73;69.08
75538;BME280;64121;48.666;8.114;2023-02-26T01:49:44;99698.91;;;-0.78;70.05
75538;BME280;64121;48.666;8.114;2023-02-26T01:55:08;99698.69;;;-0.87;69.57
75538;BME280;64121;48.666;8.114;2023-02-26T01:57:35;99693.25;;;-0.92;69.70
75538;BME280;64121;48.666;8.114;2023-02-26T02:00:01;99696.81;;;-0.92;70.01
75538;BME280;64121;48.666;8.114;2023-02-26T02:02:26;99697.38;;;-1.00;70.33
75538;BME280;64121;48.666;8.114;2023-02-26T02:04:52;99692.44;;;-0.98;70.37
75538;BME280;64121;48.666;8.114;2023-02-26T02:07:18;99693.59;;;-1.09;70.52
75538;BME280;64121;48.666;8.114;2023-02-26T02:09:43;99697.97;;;-1.13;71.26
75538;BME280;64121;48.666;8.114;2023-02-26T02:12:19;99693.88;;;-1.10;71.33
75538;BME280;64121;48.666;8.114;2023-02-26T02:14:59;99703.72;;;-1.19;71.39
75538;BME280;64121;48.666;8.114;2023-02-26T02:17:34;99695.59;;;-1.30;71.97
75538;BME280;64121;48.666;8.114;2023-02-26T02:20:23;99705.94;;;-1.27;71.38
75538;BME280;64121;48.666;8.114;2023-02-26T02:22:59;99703.22;;;-1.32;71.84
75538;BME280;64121;48.666;8.114;2023-02-26T02:25:58;99706.75;;;-1.31;72.10
75538;BME280;64121;48.666;8.114;2023-02-26T02:28:37;99712.50;;;-1.28;71.53
75538;BME280;64121;48.666;8.114;2023-02-26T02:31:07;99714.94;;;-1.31;72.09
75538;BME280;64121;48.666;8.114;2023-02-26T02:33:41;99715.50;;;-1.29;71.56
75538;BME280;64121;48.666;8.114;2023-02-26T02:36:12;99722.34;;;-1.37;72.01
75538;BME280;64121;48.666;8.114;2023-02-26T02:38:45;99714.44;;;-1.43;72.77
75538;BME280;64121;48.666;8.114;2023-02-26T02:41:14;99724.81;;;-1.45;73.13
75538;BME280;64121;48.666;8.114;2023-02-26T02:43:41;99726.47;;;-1.55;73.44
75538;BME280;64121;48.666;8.114;2023-02-26T02:46:11;99728.91;;;-1.53;73.87
75538;BME280;64121;48.666;8.114;2023-02-26T02:48:40;99731.69;;;-1.63;73.98
75538;BME280;64121;48.666;8.114;2023-02-26T02:51:11;99725.97;;;-1.67;74.14
75538;BME280;64121;48.666;8.114;2023-02-26T02:53:42;99734.66;;;-1.70;74.36
75538;BME280;64121;48.666;8.114;2023-02-26T02:56:11;99736.84;;;-1.62;73.90
75538;BME280;64121;48.666;8.114;2023-02-26T02:58:41;99735.78;;;-1.66;74.08
75538;BME280;64121;48.666;8.114;2023-02-26T03:01:12;99738.78;;;-1.67;74.09
75538;BME280;64121;48.666;8.114;2023-02-26T03:03:43;99737.66;;;-1.71;74.35
75538;BME280;64121;48.666;8.114;2023-02-26T03:06:09;99741.22;;;-1.66;73.78
75538;BME280;64121;48.666;8.114;2023-02-26T03:08:36;99739.84;;;-1.73;74.52
75538;BME280;64121;48.666;8.114;2023-02-26T03:11:02;99736.84;;;-1.72;74.21
75538;BME280;64121;48.666;8.114;2023-02-26T03:13:28;99732.22;;;-1.76;74.10
75538;BME280;64121;48.666;8.114;2023-02-26T03:16:15;99739.59;;;-1.77;74.37
75538;BME280;64121;48.666;8.114;2023-02-26T03:18:50;99743.97;;;-1.81;74.41
75538;BME280;64121;48.666;8.114;2023-02-26T03:21:22;99745.06;;;-1.82;74.81
75538;BME280;64121;48.666;8.114;2023-02-26T03:23:56;99743.69;;;-1.85;74.65
75538;BME280;64121;48.666;8.114;2023-02-26T03:26:28;99740.66;;;-1.88;74.88
75538;BME280;64121;48.666;8.114;2023-02-26T03:28:58;99737.66;;;-1.87;74.49
75538;BME280;64121;48.666;8.114;2023-02-26T03:31:30;99740.69;;;-1.83;74.73
75538;BME280;64121;48.666;8.114;2023-02-26T03:34:03;99736.31;;;-1.94;75.27
75538;BME280;64121;48.666;8.114;2023-02-26T03:36:35;99748.03;;;-1.94;75.42
75538;BME280;64121;48.666;8.114;2023-02-26T03:39:04;99743.69;;;-2.00;75.75
75538;BME280;64121;48.666;8.114;2023-02-26T03:41:36;99750.22;;;-2.01;75.57
75538;BME280;64121;48.666;8.114;2023-02-26T03:44:07;99748.06;;;-2.04;75.78
75538;BME280;64121;48.666;8.114;2023-02-26T03:46:38;99751.59;;;-1.93;75.73
75538;BME280;64121;48.666;8.114;2023-02-26T03:49:08;99755.94;;;-1.97;75.49
75538;BME280;64121;48.666;8.114;2023-02-26T03:51:35;99763.31;;;-2.03;75.16
75538;BME280;64121;48.666;8.114;2023-02-26T03:54:06;99757.31;;;-2.00;75.31
75538;BME280;64121;48.666;8.114;2023-02-26T03:56:36;99765.22;;;-1.98;75.33
75538;BME280;64121;48.666;8.114;2023-02-26T03:59:03;99770.09;;;-2.05;75.75
75538;BME280;64121;48.666;8.114;2023-02-26T04:01:33;99768.19;;;-2.15;76.22
75538;BME280;64121;48.666;8.114;2023-02-26T04:04:04;99771.19;;;-2.11;76.06
75538;BME280;64121;48.666;8.114;2023-02-26T04:06:32;99768.75;;;-2.18;76.47
75538;BME280;64121;48.666;8.114;2023-02-26T04:08:58;99767.38;;;-2.21;76.80
75538;BME280;64121;48.666;8.114;2023-02-26T04:11:24;99764.66;;;-2.21;77.03
75538;BME280;64121;48.666;8.114;2023-02-26T04:13:51;99775.00;;;-2.23;76.91
75538;BME280;64121;48.666;8.114;2023-02-26T04:16:17;99772.53;;;-2.24;77.34
75538;BME280;64121;48.666;8.114;2023-02-26T04:18:42;99779.88;;;-2.30;77.20
75538;BME280;64121;48.666;8.114;2023-02-26T04:21:11;99781.53;;;-2.29;77.16
75538;BME280;64121;48.666;8.114;2023-02-26T04:23:37;99778.78;;;-2.29;77.37
75538;BME280;64121;48.666;8.114;2023-02-26T04:26:02;99790.25;;;-2.32;77.69
75538;BME280;64121;48.666;8.114;2023-02-26T04:28:27;99794.88;;;-2.32;77.71
75538;BME280;64121;48.666;8.114;2023-02-26T04:30:53;99783.69;;;-2.31;77.62
75538;BME280;64121;48.666;8.114;2023-02-26T04:33:18;99784.78;;;-2.27;77.31
75538;BME280;64121;48.666;8.114;2023-02-26T04:35:43;99794.31;;;-2.24;77.54
75538;BME280;64121;48.666;8.114;2023-02-26T04:38:10;99803.31;;;-2.24;76.99
75538;BME280;64121;48.666;8.114;2023-02-26T04:40:35;99799.81;;;-2.19;76.96
75538;BME280;64121;48.666;8.114;2023-02-26T04:43:01;99800.63;;;-2.19;76.98
75538;BME280;64121;48.666;8.114;2023-02-26T04:45:26;99809.91;;;-2.15;76.50
75538;BME280;64121;48.666;8.114;2023-02-26T04:47:51;99816.16;;;-2.14;76.19
75538;BME280;64121;48.666;8.114;2023-02-26T04:50:17;99814.25;;;-2.19;76.35
75538;BME280;64121;48.666;8.114;2023-02-26T04:52:42;99812.91;;;-2.16;76.28
75538;BME280;64121;48.666;8.114;2023-02-26T04:55:09;99812.09;;;-2.11;75.21
75538;BME280;64121;48.666;8.114;2023-02-26T04:57:35;99803.63;;;-2.05;75.08
75538;BME280;64121;48.666;8.114;2023-02-26T05:00:00;99805.84;;;-1.97;74.79
75538;BME280;64121;48.666;8.114;2023-02-26T05:02:25;99815.13;;;-1.77;73.88
75538;BME280;64121;48.666;8.114;2023-02-26T05:04:51;99816.50;;;-1.80;73.99
75538;BME280;64121;48.666;8.114;2023-02-26T05:07:16;99812.94;;;-1.70;73.80
75538;BME280;64121;48.666;8.114;2023-02-26T05:09:41;99815.66;;;-1.70;73.53
75538;BME280;64121;48.666;8.114;2023-02-26T05:12:08;99815.41;;;-1.69;73.22
75538;BME280;64121;48.666;8.114;2023-02-26T05:14:33;99812.16;;;-1.66;73.64
75538;BME280;64121;48.666;8.114;2023-02-26T05:16:59;99815.41;;;-1.69;73.68
75538;BME280;64121;48.666;8.114;2023-02-26T05:19:24;99818.69;;;-1.67;73.77
75538;BME280;64121;48.666;8.114;2023-02-26T05:21:49;99816.78;;;-1.66;73.74
75538;BME280;64121;48.666;8.114;2023-02-26T05:24:15;99811.31;;;-1.61;73.77
75538;BME280;64121;48.666;8.114;2023-02-26T05:26:41;99820.31;;;-1.66;74.22
75538;BME280;64121;48.666;8.114;2023-02-26T05:29:07;99820.84;;;-1.74;74.32
75538;BME280;64121;48.666;8.114;2023-02-26T05:31:33;99828.50;;;-1.81;74.86
75538;BME280;64121;48.666;8.114;2023-02-26T05:33:58;99827.09;;;-1.89;75.01
75538;BME280;64121;48.666;8.114;2023-02-26T05:36:23;99834.47;;;-1.89;75.01
75538;BME280;64121;48.666;8.114;2023-02-26T05:38:49;99838.00;;;-1.89;75.03
75538;BME280;64121;48.666;8.114;2023-02-26T05:41:14;99838.00;;;-1.89;74.90
75538;BME280;64121;48.666;8.114;2023-02-26T05:43:39;99836.66;;;-1.91;75.23
75538;BME280;64121;48.666;8.114;2023-02-26T05:46:06;99841.00;;;-1.90;75.16
75538;BME280;64121;48.666;8.114;2023-02-26T05:48:31;99840.47;;;-1.92;75.19
75538;BME280;64121;48.666;8.114;2023-02-26T05:50:57;99844.31;;;-1.83;74.35
75538;BME280;64121;48.666;8.114;2023-02-26T05:53:22;99845.38;;;-1.89;74.90
75538;BME280;64121;48.666;8.114;2023-02-26T05:55:47;99842.66;;;-1.89;75.24
75538;BME280;64121;48.666;8.114;2023-02-26T05:58:13;99844.81;;;-1.86;74.37
75538;BME280;64121;48.666;8.114;2023-02-26T06:00:38;99850.28;;;-1.91;74.76
75538;BME280;64121;48.666;8.114;2023-02-26T06:03:05;99847.28;;;-1.95;75.06
75538;BME280;64121;48.666;8.114;2023-02-26T06:05:30;99852.47;;;-1.93;74.99
75538;BME280;64121;48.666;8.114;2023-02-26T06:07:56;99862.81;;;-1.90;74.68
75538;BME280;64121;48.666;8.114;2023-02-26T06:10:21;99860.09;;;-1.95;74.82
75538;BME280;64121;48.666;8.114;2023-02-26T06:12:46;99866.91;;;-1.93;74.76
75538;BME280;64121;48.666;8.114;2023-02-26T06:15:12;99874.81;;;-1.91;74.58
75538;BME280;64121;48.666;8.114;2023-02-26T06:17:38;99878.09;;;-1.89;74.74
75538;BME280;64121;48.666;8.114;2023-02-26T06:20:05;99878.91;;;-1.89;74.81
75538;BME280;64121;48.666;8.114;2023-02-26T06:22:31;99881.91;;;-1.90;75.03
75538;BME280;64121;48.666;8.114;2023-02-26T06:24:57;99883.00;;;-1.91;74.93
75538;BME280;64121;48.666;8.114;2023-02-26T06:27:22;99888.44;;;-2.01;75.39
75538;BME280;64121;48.666;8.114;2023-02-26T06:29:48;99893.34;;;-1.98;75.54
75538;BME280;64121;48.666;8.114;2023-02-26T06:32:13;99900.97;;;-2.00;76.01
75538;BME280;64121;48.666;8.114;2023-02-26T06:34:39;99905.84;;;-2.07;76.03
75538;BME280;64121;48.666;8.114;2023-02-26T06:37:05;99904.25;;;-2.03;76.17
75538;BME280;64121;48.666;8.114;2023-02-26T06:39:31;99906.16;;;-1.94;75.52
75538;BME280;64121;48.666;8.114;2023-02-26T06:41:56;99914.63;;;-1.90;75.37
75538;BME280;64121;48.666;8.114;2023-02-26T06:44:22;99919.84;;;-1.84;74.97
75538;BME280;64121;48.666;8.114;2023-02-26T06:46:47;99921.75;;;-1.74;74.40
75538;BME280;64121;48.666;8.114;2023-02-26T06:49:12;99920.72;;;-1.63;73.80
75538;BME280;64121;48.666;8.114;2023-02-26T06:51:38;99928.88;;;-1.63;73.66
75538;BME280;64121;48.666;8.114;2023-02-26T06:54:04;99927.53;;;-1.50;73.15
75538;BME280;64121;48.666;8.114;2023-02-26T06:56:30;99931.91;;;-1.44;72.60
75538;BME280;64121;48.666;8.114;2023-02-26T06:58:55;99934.91;;;-1.45;72.70
75538;BME280;64121;48.666;8.114;2023-02-26T07:01:20;99936.28;;;-1.48;72.99
75538;BME280;64121;48.666;8.114;2023-02-26T07:03:46;99935.47;;;-1.38;72.28
75538;BME280;64121;48.666;8.114;2023-02-26T07:06:12;99950.19;;;-1.34;72.42
75538;BME280;64121;48.666;8.114;2023-02-26T07:08:38;99952.66;;;-1.38;72.22
75538;BME280;64121;48.666;8.114;2023-02-26T07:11:04;99946.09;;;-1.37;72.38
75538;BME280;64121;48.666;8.114;2023-02-26T07:13:30;99953.47;;;-1.37;72.68
75538;BME280;64121;48.666;8.114;2023-02-26T07:15:55;99951.28;;;-1.35;72.68
75538;BME280;64121;48.666;8.114;2023-02-26T07:18:21;99969.31;;;-1.39;72.86
75538;BME280;64121;48.666;8.114;2023-02-26T07:20:47;99969.31;;;-1.39;73.08
75538;BME280;64121;48.666;8.114;2023-02-26T07:23:13;99966.31;;;-1.38;73.50
75538;BME280;64121;48.666;8.114;2023-02-26T07:25:38;99963.56;;;-1.38;73.12
75538;BME280;64121;48.666;8.114;2023-02-26T07:28:05;99970.13;;;-1.44;73.32
75538;BME280;64121;48.666;8.114;2023-02-26T07:30:30;99975.31;;;-1.32;72.86
75538;BME280;64121;48.666;8.114;2023-02-26T07:32:56;99982.13;;;-1.35;72.66
75538;BME280;64121;48.666;8.114;2023-02-26T07:35:21;99982.97;;;-1.29;72.72
75538;BME280;64121;48.666;8.114;2023-02-26T07:37:47;99983.53;;;-1.27;72.63
75538;BME280;64121;48.666;8.114;2023-02-26T07:40:13;99979.97;;;-1.17;72.77
75538;BME280;64121;48.666;8.114;2023-02-26T07:42:38;99978.59;;;-1.15;72.63
75538;BME280;64121;48.666;8.114;2023-02-26T07:45:06;99984.59;;;-1.13;72.19
75538;BME280;64121;48.666;8.114;2023-02-26T07:47:32;99983.00;;;-1.09;72.55
75538;BME280;64121;48.666;8.114;2023-02-26T07:49:57;99985.97;;;-0.95;72.32
75538;BME280;64121;48.666;8.114;2023-02-26T07:52:22;99994.19;;;-0.95;72.08
75538;BME280;64121;48.666;8.114;2023-02-26T07:54:48;99990.91;;;-1.02;72.80
75538;BME280;64121;48.666;8.114;2023-02-26T07:57:13;99997.47;;;-0.98;73.00
75538;BME280;64121;48.666;8.114;2023-02-26T07:59:39;99999.63;;;-0.95;72.52
75538;BME280;64121;48.666;8.114;2023-02-26T08:02:06;99997.19;;;-1.02;72.09
75538;BME280;64121;48.666;8.114;2023-02-26T08:04:31;99997.22;;;-0.92;71.91
75538;BME280;64121;48.666;8.114;2023-02-26T08:06:57;99998.56;;;-0.89;72.03
75538;BME280;64121;48.666;8.114;2023-02-26T08:09:23;100003.47;;;-0.86;72.21
75538;BME280;64121;48.666;8.114;2023-02-26T08:11:48;100013.03;;;-0.83;71.75
75538;BME280;64121;48.666;8.114;2023-02-26T08:14:14;100008.94;;;-0.76;72.09
75538;BME280;64121;48.666;8.114;2023-02-26T08:16:39;99997.19;;;-0.76;72.11
75538;BME280;64121;48.666;8.114;2023-02-26T08:19:06;100001.84;;;-0.82;71.84
75538;BME280;64121;48.666;8.114;2023-02-26T08:21:31;99997.72;;;-0.79;72.34
75538;BME280;64121;48.666;8.114;2023-02-26T08:23:57;99992.84;;;-0.87;73.28
75538;BME280;64121;48.666;8.114;2023-02-26T08:26:22;99996.38;;;-0.87;73.49
75538;BME280;64121;48.666;8.114;2023-02-26T08:28:48;99998.03;;;-0.86;73.74
75538;BME280;64121;48.666;8.114;2023-02-26T08:31:13;99989.81;;;-0.86;73.24
75538;BME280;64121;48.666;8.114;2023-02-26T08:33:39;99992.28;;;-0.79;73.24
75538;BME280;64121;48.666;8.114;2023-02-26T08:36:07;99990.09;;;-0.82;73.56
75538;BME280;64121;48.666;8.114;2023-02-26T08:38:32;99999.91;;;-1.02;73.64
75538;BME280;64121;48.666;8.114;2023-02-26T08:40:58;99994.72;;;-0.83;73.88
75538;BME280;64121;48.666;8.114;2023-02-26T08:43:24;99995.81;;;-0.79;73.50
75538;BME280;64121;48.666;8.114;2023-02-26T08:45:51;99986.53;;;-0.93;74.26
75538;BME280;64121;48.666;8.114;2023-02-26T08:48:16;99993.38;;;-1.01;74.35
75538;BME280;64121;48.666;8.114;2023-02-26T08:50:42;100004.84;;;-0.88;72.65
75538;BME280;64121;48.666;8.114;2023-02-26T08:53:09;100010.03;;;-0.77;71.81
75538;BME280;64121;48.666;8.114;2023-02-26T08:55:34;100018.78;;;-0.54;71.07
75538;BME280;64121;48.666;8.114;2023-02-26T08:57:59;100015.22;;;-0.55;71.42
75538;BME280;64121;48.666;8.114;2023-02-26T09:00:25;100016.28;;;-0.46;70.34
75538;BME280;64121;48.666;8.114;2023-02-26T09:02:50;100017.13;;;-0.55;70.03
75538;BME280;64121;48.666;8.114;2023-02-26T09:05:16;100011.88;;;-0.26;69.02
75538;BME280;64121;48.666;8.114;2023-02-26T09:07:42;100016.69;;;0.22;67.78
75538;BME280;64121;48.666;8.114;2023-02-26T09:10:11;100019.91;;;0.29;67.25
75538;BME280;64121;48.666;8.114;2023-02-26T09:12:36;100023.72;;;0.34;66.62
75538;BME280;64121;48.666;8.114;2023-02-26T09:15:02;100035.16;;;0.51;66.39
75538;BME280;64121;48.666;8.114;2023-02-26T09:17:27;100033.13;;;0.72;64.92
75538;BME280;64121;48.666;8.114;2023-02-26T09:19:53;100031.28;;;0.62;65.58
75538;BME280;64121;48.666;8.114;2023-02-26T09:22:18;100030.91;;;0.79;64.85
75538;BME280;64121;48.666;8.114;2023-02-26T09:24:43;100032.13;;;0.52;65.74
75538;BME280;64121;48.666;8.114;2023-02-26T09:27:10;100037.28;;;0.64;64.24
75538;BME280;64121;48.666;8.114;2023-02-26T09:29:35;100029.97;;;0.99;63.33
75538;BME280;64121;48.666;8.114;2023-02-26T09:32:01;100044.53;;;1.28;61.97
75538;BME280;64121;48.666;8.114;2023-02-26T09:34:26;100038.03;;;1.19;62.05
75538;BME280;64121;48.666;8.114;2023-02-26T09:36:51;100042.59;;;1.63;62.09
75538;BME280;64121;48.666;8.114;2023-02-26T09:39:17;100043.25;;;2.07;60.55
75538;BME280;64121;48.666;8.114;2023-02-26T09:41:46;100046.81;;;2.32;59.53
75538;BME280;64121;48.666;8.114;2023-02-26T09:44:18;100048.91;;;1.92;59.51
75538;BME280;64121;48.666;8.114;2023-02-26T09:46:53;100046.59;;;1.12;61.87
75538;BME280;64121;48.666;8.114;2023-02-26T09:49:26;100044.41;;;1.43;61.46
75538;BME280;64121;48.666;8.114;2023-02-26T09:51:55;100040.97;;;1.28;60.79
75538;BME280;64121;48.666;8.114;2023-02-26T09:54:24;100054.50;;;1.14;61.05
75538;BME280;64121;48.666;8.114;2023-02-26T09:56:54;100054.59;;;0.99;62.11
75538;BME280;64121;48.666;8.114;2023-02-26T09:59:22;100050.81;;;0.95;61.18
75538;BME280;64121;48.666;8.114;2023-02-26T10:01:54;100053.75;;;1.03;61.86
75538;BME280;64121;48.666;8.114;2023-02-26T10:04:27;100056.53;;;0.98;61.54
75538;BME280;64121;48.666;8.114;2023-02-26T10:07:12;100068.38;;;0.83;62.63
75538;BME280;64121;48.666;8.114;2023-02-26T10:09:50;100052.72;;;0.94;62.62
75538;BME280;64121;48.666;8.114;2023-02-26T10:12:20;100054.84;;;1.02;64.67
75538;BME280;64121;48.666;8.114;2023-02-26T10:14:51;100064.31;;;1.20;65.20
75538;BME280;64121;48.666;8.114;2023-02-26T10:17:22;100065.38;;;1.24;64.78
75538;BME280;64121;48.666;8.114;2023-02-26T10:19:53;100048.84;;;1.00;67.12
75538;BME280;64121;48.666;8.114;2023-02-26T10:22:25;100056.63;;;0.83;67.84
75538;BME280;64121;48.666;8.114;2023-02-26T10:24:57;100073.25;;;0.97;66.35
75538;BME280;64121;48.666;8.114;2023-02-26T10:27:35;100063.59;;;0.55;67.11
75538;BME280;64121;48.666;8.114;2023-02-26T10:30:06;100073.00;;;0.28;68.98
75538;BME280;64121;48.666;8.114;2023-02-26T10:32:37;100070.44;;;0.57;68.20
75538;BME280;64121;48.666;8.114;2023-02-26T10:35:09;100076.94;;;0.72;67.64
75538;BME280;64121;48.666;8.114;2023-02-26T10:37:42;100080.81;;;0.66;68.43
75538;BME280;64121;48.666;8.114;2023-02-26T10:40:15;100079.47;;;0.58;67.96
75538;BME280;64121;48.666;8.114;2023-02-26T10:42:43;100077.56;;;0.58;67.49
75538;BME280;64121;48.666;8.114;2023-02-26T10:45:23;100086.56;;;0.64;68.01
75538;BME280;64121;48.666;8.114;2023-02-26T10:47:58;100079.31;;;0.94;67.53
75538;BME280;64121;48.666;8.114;2023-02-26T10:50:25;100081.59;;;0.76;67.20
75538;BME280;64121;48.666;8.114;2023-02-26T10:52:51;100085.00;;;1.02;68.25
75538;BME280;64121;48.666;8.114;2023-02-26T10:55:37;100091.09;;;0.94;66.93
75538;BME280;64121;48.666;8.114;2023-02-26T10:58:05;100089.53;;;0.78;67.15
75538;BME280;64121;48.666;8.114;2023-02-26T11:00:34;100106.59;;;0.49;67.23
75538;BME280;64121;48.666;8.114;2023-02-26T11:03:01;100104.16;;;0.48;68.48
75538;BME280;64121;48.666;8.114;2023-02-26T11:05:29;100101.44;;;0.43;69.18
75538;BME280;64121;48.666;8.114;2023-02-26T11:08:00;100115.38;;;0.36;69.06
75538;BME280;64121;48.666;8.114;2023-02-26T11:10:38;100103.91;;;0.34;69.11
75538;BME280;64121;48.666;8.114;2023-02-26T11:13:04;100103.88;;;0.49;68.96
75538;BME280;64121;48.666;8.114;2023-02-26T11:15:29;100110.13;;;0.60;69.08
75538;BME280;64121;48.666;8.114;2023-02-26T11:17:58;100101.13;;;0.49;69.28
75538;BME280;64121;48.666;8.114;2023-02-26T11:20:29;100096.75;;;0.48;69.81
75538;BME280;64121;48.666;8.114;2023-02-26T11:22:57;100111.00;;;0.45;70.02
75538;BME280;64121;48.666;8.114;2023-02-26T11:25:25;100106.84;;;0.58;68.86
75538;BME280;64121;48.666;8.114;2023-02-26T11:27:56;100104.84;;;0.79;69.44
75538;BME280;64121;48.666;8.114;2023-02-26T11:30:26;100104.94;;;1.13;68.74
75538;BME280;64121;48.666;8.114;2023-02-26T11:32:53;100114.16;;;1.27;67.60
75538;BME280;64121;48.666;8.114;2023-02-26T11:35:24;100112.91;;;1.48;67.38
75538;BME280;64121;48.666;8.114;2023-02-26T11:37:53;100107.22;;;1.74;65.90
75538;BME280;64121;48.666;8.114;2023-02-26T11:40:22;100112.06;;;1.87;64.34
75538;BME280;64121;48.666;8.114;2023-02-26T11:42:52;100100.44;;;2.24;64.89
75538;BME280;64121;48.666;8.114;2023-02-26T11:45:19;100103.44;;;2.52;62.07
75538;BME280;64121;48.666;8.114;2023-02-26T11:47:45;100094.03;;;2.77;61.91
75538;BME280;64121;48.666;8.114;2023-02-26T11:50:14;100093.47;;;2.56;61.61
75538;BME280;64121;48.666;8.114;2023-02-26T11:52:45;100094.09;;;2.00;61.54
75538;BME280;64121;48.666;8.114;2023-02-26T11:55:18;100097.25;;;1.83;61.93
75538;BME280;64121;48.666;8.114;2023-02-26T11:57:44;100090.81;;;1.98;61.79
75538;BME280;64121;48.666;8.114;2023-02-26T12:00:17;100101.91;;;1.88;60.82
75538;BME280;64121;48.666;8.114;2023-02-26T12:02:43;100096.25;;;1.74;61.84
75538;BME280;64121;48.666;8.114;2023-02-26T12:05:14;100083.00;;;1.52;60.64
75538;BME280;64121;48.666;8.114;2023-02-26T12:07:40;100099.75;;;1.50;62.60
75538;BME280;64121;48.666;8.114;2023-02-26T12:10:14;100103.22;;;1.61;61.99
75538;BME280;64121;48.666;8.114;2023-02-26T12:12:57;100109.44;;;1.38;62.72
75538;BME280;64121;48.666;8.114;2023-02-26T12:15:26;100099.06;;;1.30;63.78
75538;BME280;64121;48.666;8.114;2023-02-26T12:20:56;100112.09;;;1.48;64.85
75538;BME280;64121;48.666;8.114;2023-02-26T12:23:27;100110.88;;;1.25;63.78
75538;BME280;64121;48.666;8.114;2023-02-26T12:26:20;100106.97;;;1.36;64.69
75538;BME280;64121;48.666;8.114;2023-02-26T12:29:06;100109.44;;;1.38;64.01
75538;BME280;64121;48.666;8.114;2023-02-26T12:32:01;100110.81;;;1.35;64.15
75538;BME280;64121;48.666;8.114;2023-02-26T12:34:46;100108.16;;;1.59;65.03
75538;BME280;64121;48.666;8.114;2023-02-26T12:37:31;100110.56;;;1.71;63.24
75538;BME280;64121;48.666;8.114;2023-02-26T12:40:19;100108.56;;;1.42;63.80
75538;BME280;64121;48.666;8.114;2023-02-26T12:42:57;100102.50;;;1.45;63.60
75538;BME280;64121;48.666;8.114;2023-02-26T12:45:35;100097.06;;;1.40;65.69
75538;BME280;64121;48.666;8.114;2023-02-26T12:48:20;100102.25;;;1.42;65.57
75538;BME280;64121;48.666;8.114;2023-02-26T12:51:00;100101.41;;;1.07;68.60
75538;BME280;64121;48.666;8.114;2023-02-26T12:53:42;100107.75;;;0.98;71.09
75538;BME280;64121;48.666;8.114;2023-02-26T12:56:28;100108.84;;;1.02;72.01
75538;BME280;64121;48.666;8.114;2023-02-26T12:59:06;100106.66;;;0.99;70.73
75538;BME280;64121;48.666;8.114;2023-02-26T13:01:44;100100.72;;;1.31;69.79
75538;BME280;64121;48.666;8.114;2023-02-26T13:04:28;100118.94;;;1.50;68.63
75538;BME280;64121;48.666;8.114;2023-02-26T13:07:11;100108.53;;;1.81;67.49
75538;BME280;64121;48.666;8.114;2023-02-26T13:09:50;100114.53;;;1.83;67.09
75538;BME280;64121;48.666;8.114;2023-02-26T13:12:27;100107.41;;;1.88;66.84
75538;BME280;64121;48.666;8.114;2023-02-26T13:15:01;100116.69;;;1.58;67.37